Time;durP1;ratioP1;P1;durP2;ratioP2;P2;SDS_P1;SDS_P2;PMS_P1;PMS_P2;Temp;Humidity;BMP_temperature;BMP_pressure;BME280_temperature;BME280_humidity;BME280_pressure;Samples;Min_cycle;Max_cycle;Signal;HPM_P1;HPM_P2
2021/03/21 00:04:14;;;;;;;8.65;4.13;;;5.90;40.60;;;;;;10053304;28;20029;-69
2021/03/21 00:09:06;;;;;;;7.47;4.00;;;5.80;40.80;;;;;;10057218;28;20037;-68
2021/03/21 00:13:56;;;;;;;6.03;4.25;;;5.80;40.90;;;;;;10050126;28;20048;-69
2021/03/21 00:18:47;;;;;;;8.18;4.07;;;5.90;41.00;;;;;;10053555;28;20030;-67
2021/03/21 00:23:38;;;;;;;7.18;3.95;;;5.90;41.20;;;;;;10052046;28;20037;-67
2021/03/21 00:28:31;;;;;;;6.25;3.60;;;5.90;41.30;;;;;;10053086;28;20040;-67
2021/03/21 00:33:25;;;;;;;6.07;3.53;;;5.80;41.50;;;;;;10045659;28;20584;-67
2021/03/21 00:38:19;;;;;;;8.85;3.92;;;5.90;41.60;;;;;;10056083;28;20467;-68
2021/03/21 00:43:10;;;;;;;9.15;4.50;;;6.00;41.60;;;;;;10053732;28;20052;-67
2021/03/21 00:48:01;;;;;;;7.45;3.67;;;6.00;41.70;;;;;;10053073;28;20040;-67
2021/03/21 00:52:52;;;;;;;6.20;3.92;;;6.10;41.70;;;;;;10051155;28;20034;-68
2021/03/21 00:57:44;;;;;;;6.60;3.85;;;6.10;41.90;;;;;;10052472;28;20048;-68
2021/03/21 01:02:35;;;;;;;8.00;4.15;;;6.10;42.00;;;;;;10052280;28;20033;-68
2021/03/21 01:07:25;;;;;;;4.18;2.90;;;6.10;42.10;;;;;;10052303;28;20507;-68
2021/03/21 01:12:16;;;;;;;7.68;3.13;;;6.10;42.10;;;;;;10037160;28;20065;-67
2021/03/21 01:17:08;;;;;;;5.70;3.25;;;6.00;42.30;;;;;;10048047;28;20620;-67
2021/03/21 01:21:58;;;;;;;6.95;3.67;;;6.00;42.40;;;;;;10051055;28;20065;-68
2021/03/21 01:26:50;;;;;;;6.65;3.95;;;5.90;42.60;;;;;;10048117;28;20076;-68
2021/03/21 01:31:41;;;;;;;8.85;4.60;;;6.00;42.60;;;;;;10050353;28;20032;-67
2021/03/21 01:36:35;;;;;;;9.13;4.90;;;6.00;42.80;;;;;;10051563;28;20689;-67
2021/03/21 01:41:32;;;;;;;11.07;4.43;;;5.90;43.00;;;;;;10049203;28;20180;-68
2021/03/21 01:46:23;;;;;;;10.40;4.82;;;5.90;43.30;;;;;;10051302;28;20395;-68
2021/03/21 01:51:23;;;;;;;9.30;5.03;;;5.80;43.60;;;;;;10050394;28;20042;-67
2021/03/21 01:56:14;;;;;;;6.95;4.55;;;5.90;43.80;;;;;;10049052;28;20546;-69
2021/03/21 02:01:24;;;;;;;8.38;4.78;;;5.90;43.90;;;;;;10049606;28;20037;-67
2021/03/21 02:06:37;;;;;;;8.63;5.38;;;5.80;44.30;;;;;;10079730;28;20117;-67
2021/03/21 02:11:45;;;;;;;9.45;5.30;;;5.70;44.80;;;;;;10046588;28;20395;-67
2021/03/21 02:16:47;;;;;;;6.65;4.47;;;5.70;44.80;;;;;;10047291;28;20095;-68
2021/03/21 02:21:49;;;;;;;8.10;4.57;;;5.60;45.10;;;;;;10049548;28;20036;-68
2021/03/21 02:26:48;;;;;;;9.48;4.53;;;5.50;45.30;;;;;;10057722;28;20472;-67
2021/03/21 02:31:50;;;;;;;8.52;5.00;;;5.30;46.10;;;;;;10048988;28;20530;-68
2021/03/21 02:36:44;;;;;;;7.53;3.50;;;5.20;46.00;;;;;;10048514;28;20029;-68
2021/03/21 02:41:45;;;;;;;10.05;5.35;;;5.30;46.10;;;;;;10045126;28;20034;-68
2021/03/21 02:46:40;;;;;;;10.65;5.18;;;5.50;45.80;;;;;;10048680;28;20036;-68
2021/03/21 02:51:39;;;;;;;9.13;4.23;;;5.40;46.00;;;;;;10047543;28;20030;-68
2021/03/21 02:56:31;;;;;;;8.68;4.20;;;5.40;46.30;;;;;;10045365;28;20056;-68
2021/03/21 03:01:30;;;;;;;9.07;4.25;;;5.40;46.30;;;;;;10045533;28;20029;-68
2021/03/21 03:06:33;;;;;;;8.48;3.65;;;5.50;46.70;;;;;;10045704;28;20104;-68
2021/03/21 03:11:31;;;;;;;5.75;2.97;;;5.50;46.70;;;;;;10045639;28;20045;-68
2021/03/21 03:16:35;;;;;;;4.72;3.28;;;5.30;47.00;;;;;;10047709;28;20041;-68
2021/03/21 03:22:01;;;;;;;5.45;2.85;;;5.30;46.90;;;;;;10041405;28;20436;-67
2021/03/21 03:27:05;;;;;;;5.25;3.47;;;5.40;47.10;;;;;;10059565;28;20487;-67
2021/03/21 03:32:00;;;;;;;4.75;3.08;;;5.40;47.10;;;;;;10046538;28;20110;-68
2021/03/21 03:36:52;;;;;;;5.90;2.65;;;5.40;47.10;;;;;;10046379;28;20037;-67
2021/03/21 03:41:48;;;;;;;5.95;2.95;;;5.40;47.30;;;;;;10053510;28;20497;-68
2021/03/21 03:46:56;;;;;;;5.05;2.90;;;5.40;47.50;;;;;;10053828;28;20378;-67
2021/03/21 03:52:16;;;;;;;5.30;2.38;;;5.40;47.60;;;;;;10071716;28;20025;-69
2021/03/21 03:57:14;;;;;;;4.38;2.58;;;5.20;47.80;;;;;;10050088;28;20511;-68
2021/03/21 04:02:12;;;;;;;4.78;2.90;;;5.20;48.10;;;;;;10050424;28;20056;-68
2021/03/21 04:07:17;;;;;;;5.80;3.22;;;5.20;48.10;;;;;;10051976;28;20022;-67
2021/03/21 04:12:14;;;;;;;7.37;2.83;;;5.10;48.30;;;;;;10058219;28;20106;-68
2021/03/21 04:17:17;;;;;;;4.40;2.58;;;5.20;48.50;;;;;;10049754;28;20052;-67
2021/03/21 04:22:16;;;;;;;4.55;2.55;;;5.20;48.60;;;;;;10048226;28;20033;-68
2021/03/21 04:27:34;;;;;;;4.38;2.75;;;5.10;48.90;;;;;;10052153;28;20485;-68
2021/03/21 04:32:49;;;;;;;4.05;2.78;;;5.10;49.50;;;;;;10049064;28;20056;-68
2021/03/21 04:37:45;;;;;;;9.38;2.78;;;5.00;49.90;;;;;;10052781;28;20655;-68
2021/03/21 04:42:41;;;;;;;7.95;2.83;;;4.90;49.70;;;;;;10051239;28;20119;-69
2021/03/21 04:47:38;;;;;;;;;;;4.90;50.20;;;;;;10051400;28;20656;-68
2021/03/21 04:52:50;;;;;;;4.22;2.47;;;4.90;49.90;;;;;;10052539;28;19928;-66
2021/03/21 04:57:48;;;;;;;3.97;2.65;;;4.90;49.80;;;;;;10051768;28;20392;-68
2021/03/21 05:02:45;;;;;;;4.43;2.90;;;4.90;49.90;;;;;;10051660;28;20042;-67
2021/03/21 05:08:08;;;;;;;6.57;3.38;;;4.90;49.80;;;;;;10046423;28;20506;-67
2021/03/21 05:13:11;;;;;;;4.00;2.03;;;4.80;50.10;;;;;;10050984;28;20821;-68
2021/03/21 05:18:02;;;;;;;4.78;2.45;;;4.70;50.60;;;;;;10049104;28;20029;-68
2021/03/21 05:23:02;;;;;;;5.13;2.95;;;4.80;50.80;;;;;;10047622;28;20018;-68
2021/03/21 05:28:40;;;;;;;3.45;2.40;;;4.70;50.70;;;;;;10048557;28;20034;-68
2021/03/21 05:33:31;;;;;;;2.78;2.13;;;4.90;50.70;;;;;;10051658;28;20049;-67
2021/03/21 05:38:53;;;;;;;5.93;3.03;;;4.90;50.80;;;;;;10048456;28;20067;-68
2021/03/21 05:43:56;;;;;;;4.55;2.83;;;4.80;50.80;;;;;;10044976;28;20026;-68
2021/03/21 05:49:08;;;;;;;6.22;2.90;;;4.70;51.20;;;;;;10049545;28;20724;-68
2021/03/21 05:54:20;;;;;;;6.90;3.47;;;4.80;51.20;;;;;;10048685;28;20466;-68
2021/03/21 05:59:45;;;;;;;5.03;2.90;;;4.70;51.30;;;;;;10045419;28;20407;-67
2021/03/21 06:05:28;;;;;;;5.15;2.78;;;4.80;51.30;;;;;;10045248;28;20029;-67
2021/03/21 06:10:37;;;;;;;6.05;3.30;;;4.90;51.30;;;;;;10048051;28;20044;-67
2021/03/21 06:16:01;;;;;;;5.18;2.83;;;5.00;51.20;;;;;;10043001;28;20451;-67
2021/03/21 06:21:07;;;;;;;3.83;2.42;;;4.90;51.30;;;;;;10046230;28;20029;-67
2021/03/21 06:26:08;;;;;;;4.72;2.58;;;4.90;51.50;;;;;;10048119;28;20087;-68
2021/03/21 06:31:13;;;;;;;4.38;3.00;;;5.00;51.60;;;;;;10033676;28;20485;-67
2021/03/21 06:36:32;;;;;;;4.60;2.72;;;5.00;51.80;;;;;;10048150;28;20053;-67
2021/03/21 06:41:47;;;;;;;4.28;2.38;;;4.90;52.10;;;;;;10048882;28;20093;-68
2021/03/21 06:46:55;;;;;;;4.17;2.43;;;4.90;52.10;;;;;;10047471;28;20143;-68
2021/03/21 06:52:04;;;;;;;4.68;2.20;;;5.00;51.80;;;;;;10046599;28;20029;-68
2021/03/21 06:57:27;;;;;;;3.05;2.60;;;5.10;51.80;;;;;;10044767;28;20151;-68
2021/03/21 07:02:56;;;;;;;4.55;2.53;;;5.10;51.90;;;;;;10043780;28;20029;-68
2021/03/21 07:08:13;;;;;;;4.65;2.45;;;5.00;52.10;;;;;;10037906;28;20045;-68
2021/03/21 07:13:27;;;;;;;5.75;3.33;;;5.10;52.50;;;;;;10041607;28;20038;-68
2021/03/21 07:18:18;;;;;;;5.32;3.08;;;5.20;52.00;;;;;;10037969;28;20025;-68
2021/03/21 07:23:34;;;;;;;5.15;2.63;;;5.20;52.00;;;;;;10044524;28;20271;-67
2021/03/21 07:29:03;;;;;;;6.13;3.20;;;5.20;52.20;;;;;;10046717;28;20029;-68
2021/03/21 07:33:54;;;;;;;4.55;2.30;;;5.30;52.40;;;;;;10043390;28;20048;-69
2021/03/21 07:39:06;;;;;;;6.88;3.25;;;5.10;52.80;;;;;;10045263;28;20614;-67
2021/03/21 07:44:34;;;;;;;6.45;3.03;;;5.00;53.00;;;;;;10041362;28;20041;-68
2021/03/21 07:49:48;;;;;;;7.22;3.33;;;5.10;53.00;;;;;;10044623;28;20038;-68
2021/03/21 07:54:49;;;;;;;5.30;3.20;;;5.10;53.10;;;;;;10044732;28;20053;-67
2021/03/21 07:59:44;;;;;;;6.20;3.20;;;5.40;52.70;;;;;;10045348;28;20048;-67
2021/03/21 08:04:46;;;;;;;10.27;3.20;;;5.50;52.60;;;;;;10046287;28;20031;-68
2021/03/21 08:09:39;;;;;;;4.88;3.20;;;5.70;52.50;;;;;;10044288;28;20044;-67
2021/03/21 08:14:42;;;;;;;4.80;3.30;;;5.80;52.50;;;;;;10047154;28;20032;-67
2021/03/21 08:19:36;;;;;;;4.18;3.00;;;5.90;52.50;;;;;;10028231;28;20120;-67
2021/03/21 08:24:35;;;;;;;4.28;2.10;;;5.90;52.50;;;;;;10049741;28;20052;-68
2021/03/21 08:29:28;;;;;;;3.80;2.15;;;6.30;52.40;;;;;;10049681;28;20070;-68
2021/03/21 08:34:30;;;;;;;4.72;2.50;;;6.30;52.20;;;;;;10054157;28;20049;-67
2021/03/21 08:39:41;;;;;;;4.97;2.85;;;6.50;52.10;;;;;;10055536;28;20045;-68
2021/03/21 08:44:42;;;;;;;4.13;2.92;;;6.40;51.90;;;;;;10052022;28;20071;-68
2021/03/21 08:49:38;;;;;;;4.50;2.28;;;6.40;52.00;;;;;;10052095;28;20499;-68
2021/03/21 08:54:35;;;;;;;5.00;3.20;;;6.20;52.10;;;;;;10050871;28;20041;-66
2021/03/21 08:59:44;;;;;;;3.83;2.47;;;6.20;52.10;;;;;;10053103;28;20527;-67
2021/03/21 09:04:40;;;;;;;6.20;2.55;;;6.30;51.90;;;;;;10058482;28;20029;-67
2021/03/21 09:09:38;;;;;;;6.60;3.40;;;6.30;51.60;;;;;;10059740;28;20029;-67
2021/03/21 09:14:31;;;;;;;4.38;2.75;;;6.30;51.70;;;;;;10053183;28;20037;-67
2021/03/21 09:19:26;;;;;;;4.82;2.47;;;6.60;51.50;;;;;;10050767;28;20042;-67
2021/03/21 09:24:35;;;;;;;4.40;2.40;;;6.90;51.10;;;;;;10042730;28;20049;-69
2021/03/21 09:29:34;;;;;;;4.03;2.92;;;6.90;51.10;;;;;;10051336;28;20033;-67
2021/03/21 09:34:38;;;;;;;5.18;2.78;;;6.80;51.30;;;;;;10052192;28;20123;-67
2021/03/21 09:39:35;;;;;;;4.82;2.38;;;6.90;51.30;;;;;;10054053;28;20546;-67
2021/03/21 09:44:36;;;;;;;4.45;2.70;;;6.70;51.10;;;;;;10050601;28;20076;-66
2021/03/21 09:49:49;;;;;;;2.63;1.98;;;6.70;51.30;;;;;;10052614;28;20025;-68
2021/03/21 09:54:58;;;;;;;3.97;2.40;;;6.70;51.20;;;;;;10047237;28;20079;-68
2021/03/21 09:59:55;;;;;;;6.10;2.92;;;6.70;51.20;;;;;;10052586;28;20041;-68
2021/03/21 10:05:08;;;;;;;3.75;2.47;;;6.60;51.20;;;;;;10050570;28;20053;-67
2021/03/21 10:10:00;;;;;;;4.00;2.42;;;6.80;51.00;;;;;;10053670;28;20564;-68
2021/03/21 10:15:12;;;;;;;3.97;2.45;;;7.10;50.70;;;;;;10049689;28;20573;-67
2021/03/21 10:20:03;;;;;;;4.65;2.88;;;7.20;50.80;;;;;;10048346;28;20184;-68
2021/03/21 10:24:57;;;;;;;5.75;3.30;;;7.20;50.60;;;;;;10048391;28;20018;-68
2021/03/21 10:30:26;;;;;;;5.18;2.95;;;7.00;50.80;;;;;;10048041;28;20160;-67
2021/03/21 10:35:25;;;;;;;9.90;4.38;;;7.10;50.70;;;;;;10050485;28;20037;-68
2021/03/21 10:40:43;;;;;;;9.73;4.05;;;7.00;50.80;;;;;;10048108;28;20128;-68
2021/03/21 10:45:34;;;;;;;6.40;3.65;;;7.00;51.20;;;;;;10057084;28;20789;-65
2021/03/21 10:50:28;;;;;;;7.03;3.90;;;6.90;51.70;;;;;;10046675;28;20118;-67
2021/03/21 10:55:22;;;;;;;5.95;3.75;;;6.90;51.80;;;;;;10049415;28;20064;-66
2021/03/21 11:00:12;;;;;;;8.07;4.15;;;7.00;52.20;;;;;;10049929;28;20026;-67
2021/03/21 11:05:21;;;;;;;8.63;4.00;;;7.00;52.20;;;;;;10046883;28;20055;-66
2021/03/21 11:10:13;;;;;;;5.15;3.60;;;7.10;52.40;;;;;;10056987;28;20029;-63
2021/03/21 11:15:30;;;;;;;6.90;4.65;;;7.20;52.40;;;;;;10046262;28;20432;-62
2021/03/21 11:20:41;;;;;;;;;;;7.10;52.70;;;;;;10047142;28;20025;-61
2021/03/21 11:25:36;;;;;;;6.75;3.60;;;6.90;53.10;;;;;;10045699;28;19913;-64
2021/03/21 11:30:28;;;;;;;7.03;4.20;;;7.10;52.90;;;;;;10047192;28;20124;-62
2021/03/21 11:35:27;;;;;;;11.30;4.22;;;7.10;53.00;;;;;;10047612;28;20973;-62
2021/03/21 11:40:33;;;;;;;5.32;3.50;;;7.00;53.30;;;;;;10064667;28;20119;-63
2021/03/21 11:45:29;;;;;;;7.20;3.53;;;7.00;53.60;;;;;;10049114;28;20029;-65
2021/03/21 11:50:26;;;;;;;;;;;7.00;53.60;;;;;;10062767;28;20033;-62
2021/03/21 11:55:21;;;;;;;5.30;3.38;;;7.10;53.60;;;;;;10047971;28;20437;-62
2021/03/21 12:00:27;;;;;;;6.33;3.40;;;7.00;53.50;;;;;;10051821;28;20548;-74
2021/03/21 12:05:22;;;;;;;8.52;3.63;;;7.10;53.60;;;;;;10037261;28;20288;-61
2021/03/21 12:10:30;;;;;;;7.47;4.63;;;7.00;53.70;;;;;;10059841;28;20533;-64
2021/03/21 12:15:23;;;;;;;5.35;3.92;;;7.10;53.70;;;;;;10052832;28;20080;-72
2021/03/21 12:20:30;;;;;;;6.75;4.05;;;7.10;53.40;;;;;;10052377;28;20049;-68
2021/03/21 12:25:28;;;;;;;5.47;3.55;;;7.10;53.60;;;;;;10053212;28;20037;-68
2021/03/21 12:30:42;;;;;;;5.15;3.97;;;7.20;53.40;;;;;;10056746;28;20032;-71
2021/03/21 12:35:33;;;;;;;7.47;3.78;;;7.10;53.60;;;;;;10052799;28;20053;-67
2021/03/21 12:40:40;;;;;;;8.52;4.47;;;7.00;54.00;;;;;;10055429;28;20030;-71
2021/03/21 12:45:32;;;;;;;;;;;7.20;54.00;;;;;;10050824;28;20518;-69
2021/03/21 12:50:38;;;;;;;8.27;3.67;;;7.20;54.00;;;;;;10066828;28;19969;-75
2021/03/21 12:55:28;;;;;;;6.60;4.65;;;7.30;54.00;;;;;;10052022;28;20223;-73
2021/03/21 13:00:27;;;;;;;6.63;4.32;;;7.40;53.90;;;;;;10052180;28;20148;-74
2021/03/21 13:05:33;;;;;;;10.95;4.38;;;7.50;54.10;;;;;;10051007;28;20056;-73
2021/03/21 13:10:28;;;;;;;10.60;5.43;;;7.70;54.30;;;;;;10062227;28;20033;-73
2021/03/21 13:15:20;;;;;;;7.03;4.93;;;7.90;53.80;;;;;;10052287;28;20037;-75
2021/03/21 13:20:15;;;;;;;7.85;4.72;;;8.00;54.40;;;;;;10051495;28;20038;-74
2021/03/21 13:25:07;;;;;;;9.65;3.65;;;8.30;53.80;;;;;;10051678;28;20396;-75
2021/03/21 13:29:58;;;;;;;8.48;4.40;;;8.90;53.20;;;;;;10055595;28;20033;-77
2021/03/21 13:34:55;;;;;;;11.50;6.13;;;8.80;53.80;;;;;;10050563;28;20041;-67
2021/03/21 13:39:49;;;;;;;6.35;3.97;;;9.00;53.80;;;;;;10049513;28;20049;-73
2021/03/21 13:44:41;;;;;;;7.45;4.70;;;8.90;54.30;;;;;;10050017;28;20041;-75
2021/03/21 13:49:32;;;;;;;7.40;4.55;;;9.40;54.10;;;;;;10052243;28;20037;-75
2021/03/21 13:54:23;;;;;;;8.95;5.20;;;9.20;53.50;;;;;;10060730;28;20033;-75
2021/03/21 13:59:14;;;;;;;8.20;4.20;;;9.30;53.90;;;;;;10051987;28;20038;-76
2021/03/21 14:04:05;;;;;;;7.95;4.80;;;9.20;54.80;;;;;;10055598;28;20219;-75
2021/03/21 14:08:55;;;;;;;7.18;4.72;;;9.70;53.40;;;;;;10051333;28;20034;-76
2021/03/21 14:13:46;;;;;;;8.93;4.05;;;9.30;54.00;;;;;;10048684;28;20100;-76
2021/03/21 14:18:37;;;;;;;7.25;4.20;;;9.20;54.50;;;;;;10048818;28;20029;-75
2021/03/21 14:23:29;;;;;;;6.88;3.97;;;8.80;55.50;;;;;;10045162;28;20032;-71
2021/03/21 14:28:20;;;;;;;8.10;4.30;;;8.60;55.20;;;;;;10060069;28;20018;-71
2021/03/21 14:33:14;;;;;;;9.13;4.32;;;8.40;55.70;;;;;;10047608;28;20075;-67
2021/03/21 14:38:08;;;;;;;6.72;3.78;;;8.40;55.20;;;;;;10050068;28;20406;-72
2021/03/21 14:42:59;;;;;;;7.20;3.97;;;8.50;55.10;;;;;;10043798;28;20833;-71
2021/03/21 14:47:50;;;;;;;7.25;4.18;;;8.70;54.90;;;;;;10044873;28;20029;-71
2021/03/21 14:52:43;;;;;;;6.32;4.15;;;8.70;55.10;;;;;;10045964;28;20021;-71
2021/03/21 14:57:33;;;;;;;7.45;4.40;;;8.70;55.40;;;;;;10045546;28;20478;-70
2021/03/21 15:02:24;;;;;;;4.50;3.80;;;8.90;55.00;;;;;;10042345;28;20991;-71
2021/03/21 15:07:16;;;;;;;7.00;3.63;;;8.90;55.30;;;;;;10043242;28;20061;-69
2021/03/21 15:12:08;;;;;;;6.95;4.35;;;8.70;55.50;;;;;;10045102;28;20126;-67
2021/03/21 15:16:59;;;;;;;8.70;4.88;;;8.70;55.70;;;;;;10042408;28;20026;-70
2021/03/21 15:21:50;;;;;;;6.50;4.15;;;8.90;55.50;;;;;;10046905;28;20031;-68
2021/03/21 15:26:40;;;;;;;7.47;4.55;;;9.70;54.80;;;;;;10036497;28;20400;-67
2021/03/21 15:31:36;;;;;;;7.63;5.40;;;12.30;51.00;;;;;;10044913;28;20179;-70
2021/03/21 15:36:29;;;;;;;8.43;4.85;;;12.10;51.10;;;;;;10042538;28;20029;-71
2021/03/21 15:41:21;;;;;;;7.40;4.70;;;11.20;53.20;;;;;;10040344;28;20049;-70
2021/03/21 15:46:12;;;;;;;6.18;3.83;;;10.20;54.40;;;;;;10039870;28;20434;-70
2021/03/21 15:51:03;;;;;;;5.28;4.18;;;9.80;55.50;;;;;;10035651;28;20033;-69
2021/03/21 15:55:54;;;;;;;8.55;4.40;;;9.40;55.90;;;;;;10038351;28;20034;-69
2021/03/21 16:00:45;;;;;;;5.50;4.15;;;9.30;55.90;;;;;;10034336;28;20450;-70
2021/03/21 16:05:39;;;;;;;5.70;4.90;;;9.00;56.10;;;;;;10036665;28;20057;-69
2021/03/21 16:10:30;;;;;;;6.68;3.83;;;9.00;56.00;;;;;;10048404;28;20034;-69
2021/03/21 16:15:23;;;;;;;7.20;4.75;;;9.70;54.70;;;;;;10067825;28;20491;-69
2021/03/21 16:20:16;;;;;;;7.82;4.25;;;9.50;54.70;;;;;;10051860;28;20029;-69
2021/03/21 16:25:09;;;;;;;8.07;4.95;;;9.30;55.20;;;;;;10047001;28;20041;-68
2021/03/21 16:30:02;;;;;;;7.57;4.57;;;9.10;55.70;;;;;;10053459;28;20021;-69
2021/03/21 16:34:53;;;;;;;8.43;4.70;;;8.80;55.80;;;;;;10052132;28;20049;-67
2021/03/21 16:39:44;;;;;;;10.07;5.03;;;8.80;55.70;;;;;;10053949;28;20072;-67
2021/03/21 16:44:35;;;;;;;7.85;4.47;;;8.60;56.20;;;;;;10055515;28;20098;-68
2021/03/21 16:49:27;;;;;;;9.27;4.40;;;8.50;56.30;;;;;;10048361;28;20283;-67
2021/03/21 16:54:18;;;;;;;6.90;5.03;;;8.30;56.50;;;;;;10051677;28;20358;-67
2021/03/21 16:59:08;;;;;;;6.78;4.40;;;8.10;57.20;;;;;;10050432;28;20288;-66
2021/03/21 17:03:59;;;;;;;8.65;5.13;;;8.00;57.00;;;;;;10050982;28;20564;-66
2021/03/21 17:08:50;;;;;;;8.77;4.10;;;8.00;57.10;;;;;;10056535;28;20021;-68
2021/03/21 17:13:41;;;;;;;8.43;5.10;;;7.90;57.10;;;;;;10051717;28;20025;-67
2021/03/21 17:18:31;;;;;;;6.88;4.63;;;7.90;57.00;;;;;;10049443;28;20033;-66
2021/03/21 17:23:24;;;;;;;6.63;3.95;;;7.80;57.10;;;;;;10048671;28;20029;-68
2021/03/21 17:28:15;;;;;;;9.65;3.92;;;7.70;57.30;;;;;;10039591;28;20034;-67
2021/03/21 17:33:07;;;;;;;8.55;4.65;;;7.60;57.30;;;;;;10050497;28;20068;-67
2021/03/21 17:37:58;;;;;;;5.45;3.22;;;7.60;57.50;;;;;;10053847;28;20451;-64
2021/03/21 17:42:50;;;;;;;5.00;3.65;;;7.50;57.50;;;;;;10050176;28;20584;-68
2021/03/21 17:47:40;;;;;;;8.80;4.35;;;7.30;58.10;;;;;;10053777;28;20106;-68
2021/03/21 17:52:31;;;;;;;7.55;4.25;;;7.30;57.70;;;;;;10050380;28;20437;-68
2021/03/21 17:57:22;;;;;;;6.07;3.83;;;7.10;57.80;;;;;;10052058;28;20037;-68
2021/03/21 18:02:19;;;;;;;6.30;4.20;;;7.10;58.00;;;;;;10049118;28;20379;-67
2021/03/21 18:07:10;;;;;;;7.47;4.53;;;7.10;57.90;;;;;;10048189;28;20025;-64
2021/03/21 18:12:01;;;;;;;6.72;3.72;;;7.10;58.00;;;;;;10044003;28;20031;-65
2021/03/21 18:16:52;;;;;;;8.95;3.53;;;7.00;57.90;;;;;;10048677;28;21198;-61
2021/03/21 18:21:43;;;;;;;6.40;3.80;;;6.90;58.00;;;;;;10052259;28;20029;-66
2021/03/21 18:26:33;;;;;;;6.60;3.30;;;6.80;58.10;;;;;;10047329;28;20344;-68
2021/03/21 18:31:28;;;;;;;7.40;3.97;;;6.80;58.10;;;;;;10048144;28;20033;-64
2021/03/21 18:36:19;;;;;;;6.95;3.63;;;6.90;58.10;;;;;;10062215;28;20115;-66
2021/03/21 18:41:13;;;;;;;8.93;3.75;;;6.80;58.40;;;;;;10047915;28;20033;-64
2021/03/21 18:46:04;;;;;;;8.20;3.75;;;6.90;58.30;;;;;;10050442;28;20445;-63
2021/03/21 18:50:57;;;;;;;7.47;4.20;;;7.00;58.20;;;;;;10041012;28;20454;-62
2021/03/21 18:55:47;;;;;;;8.02;4.28;;;7.00;58.20;;;;;;10039217;28;20649;-63
2021/03/21 19:00:42;;;;;;;7.93;3.50;;;7.10;58.20;;;;;;10043647;28;20039;-64
2021/03/21 19:05:34;;;;;;;7.50;4.00;;;7.00;58.40;;;;;;10043382;28;20488;-63
2021/03/21 19:10:29;;;;;;;11.52;5.13;;;7.10;58.40;;;;;;10045723;28;20037;-64
2021/03/21 19:15:20;;;;;;;8.38;4.10;;;7.20;58.40;;;;;;10039058;28;20022;-63
2021/03/21 19:20:12;;;;;;;7.90;4.75;;;7.20;58.50;;;;;;10045766;28;20518;-63
2021/03/21 19:25:05;;;;;;;8.13;4.43;;;7.20;58.30;;;;;;10043559;28;20048;-63
2021/03/21 19:29:56;;;;;;;7.68;4.50;;;7.10;58.30;;;;;;10045779;28;20334;-62
2021/03/21 19:34:48;;;;;;;7.40;4.63;;;6.90;58.50;;;;;;10045662;28;20115;-65
2021/03/21 19:39:39;;;;;;;7.43;4.28;;;6.90;58.70;;;;;;10041627;28;20033;-66
2021/03/21 19:44:30;;;;;;;9.80;5.03;;;6.90;58.70;;;;;;10046493;28;20021;-64
2021/03/21 19:49:22;;;;;;;9.45;4.22;;;6.80;58.70;;;;;;10050354;28;20483;-62
2021/03/21 19:54:13;;;;;;;5.97;4.18;;;6.80;58.80;;;;;;10047865;28;20094;-61
2021/03/21 19:59:03;;;;;;;7.25;4.70;;;6.80;59.20;;;;;;10047855;28;20037;-63
2021/03/21 20:03:55;;;;;;;10.57;4.75;;;6.80;58.70;;;;;;10046352;28;20049;-62
2021/03/21 20:08:46;;;;;;;8.32;4.72;;;6.80;58.70;;;;;;10046812;28;20025;-61
2021/03/21 20:13:37;;;;;;;7.82;4.07;;;6.90;58.60;;;;;;10046651;28;20044;-65
2021/03/21 20:18:28;;;;;;;9.02;4.63;;;6.80;58.80;;;;;;10051813;28;20033;-62
2021/03/21 20:23:19;;;;;;;10.07;4.65;;;6.80;58.80;;;;;;10054706;28;20036;-66
2021/03/21 20:28:13;;;;;;;9.18;4.90;;;6.80;59.10;;;;;;10051536;28;20039;-64
2021/03/21 20:33:04;;;;;;;5.80;3.97;;;6.80;59.10;;;;;;10050332;28;20080;-66
2021/03/21 20:37:57;;;;;;;8.77;4.40;;;6.90;59.10;;;;;;10053701;28;20063;-66
2021/03/21 20:42:48;;;;;;;7.13;4.07;;;6.80;59.10;;;;;;10053797;28;20025;-68
2021/03/21 20:47:39;;;;;;;8.13;4.78;;;6.80;59.20;;;;;;10056628;28;20026;-67
2021/03/21 20:52:30;;;;;;;10.60;5.63;;;6.80;59.10;;;;;;10051186;28;20029;-66
2021/03/21 20:57:21;;;;;;;8.27;4.28;;;6.60;59.20;;;;;;10054344;28;20045;-69
2021/03/21 21:02:26;;;;;;;9.52;4.53;;;6.60;59.30;;;;;;10051830;28;20030;-65
2021/03/21 21:07:17;;;;;;;11.15;5.60;;;6.50;59.30;;;;;;10050648;28;20021;-69
2021/03/21 21:12:08;;;;;;;12.57;5.15;;;6.50;59.40;;;;;;10051735;28;20022;-67
2021/03/21 21:16:59;;;;;;;10.60;5.78;;;6.40;59.40;;;;;;10049626;28;20047;-64
2021/03/21 21:21:50;;;;;;;9.30;5.05;;;6.40;59.50;;;;;;10052280;28;20187;-64
2021/03/21 21:26:42;;;;;;;11.98;5.28;;;6.30;59.40;;;;;;10050334;28;20029;-67
2021/03/21 21:31:33;;;;;;;8.63;4.75;;;6.30;59.50;;;;;;10048219;28;20360;-63
2021/03/21 21:36:23;;;;;;;10.00;4.85;;;6.40;59.60;;;;;;10051892;28;20041;-63
2021/03/21 21:41:14;;;;;;;9.02;5.10;;;6.40;59.60;;;;;;10049190;28;20081;-65
2021/03/21 21:46:09;;;;;;;14.07;7.00;;;6.60;59.60;;;;;;10051725;28;20112;-62
2021/03/21 21:51:00;;;;;;;12.77;6.00;;;6.60;59.70;;;;;;10052389;28;20034;-64
2021/03/21 21:55:53;;;;;;;11.35;6.80;;;6.60;60.00;;;;;;10047614;28;20048;-66
2021/03/21 22:00:45;;;;;;;13.60;6.60;;;6.60;60.30;;;;;;10049366;28;20539;-62
2021/03/21 22:05:35;;;;;;;16.50;7.65;;;6.60;60.20;;;;;;10051129;28;20070;-64
2021/03/21 22:10:33;;;;;;;11.48;6.65;;;6.60;60.40;;;;;;10049567;28;20034;-64
2021/03/21 22:15:27;;;;;;;11.00;5.93;;;6.70;60.40;;;;;;10049977;28;20447;-62
2021/03/21 22:20:21;;;;;;;11.18;6.18;;;6.60;60.50;;;;;;10049516;28;20029;-62
2021/03/21 22:25:13;;;;;;;9.48;5.55;;;6.70;60.60;;;;;;10047215;28;20655;-65
2021/03/21 22:30:08;;;;;;;14.30;6.40;;;6.70;60.50;;;;;;10051164;28;20046;-65
2021/03/21 22:34:59;;;;;;;10.80;5.93;;;6.70;60.60;;;;;;10050046;28;20057;-62
2021/03/21 22:39:49;;;;;;;10.32;6.97;;;6.80;60.70;;;;;;10046457;28;20048;-65
2021/03/21 22:44:40;;;;;;;12.38;7.07;;;6.70;60.60;;;;;;10047259;28;20029;-62
2021/03/21 22:49:32;;;;;;;14.82;6.65;;;6.60;60.80;;;;;;10048418;28;20037;-63
2021/03/21 22:54:23;;;;;;;10.68;6.43;;;6.60;61.00;;;;;;10046344;28;20037;-63
2021/03/21 22:59:14;;;;;;;14.43;5.78;;;6.50;61.40;;;;;;10048409;28;20048;-67
2021/03/21 23:04:05;;;;;;;15.43;5.63;;;6.50;61.30;;;;;;10050355;28;20521;-62
2021/03/21 23:08:56;;;;;;;10.82;5.63;;;6.50;61.50;;;;;;10046732;28;20523;-63
2021/03/21 23:13:47;;;;;;;10.90;5.30;;;6.40;61.90;;;;;;10047445;28;20033;-66
2021/03/21 23:18:39;;;;;;;10.07;4.63;;;6.30;62.20;;;;;;10048315;28;20056;-63
2021/03/21 23:23:30;;;;;;;6.90;4.03;;;6.30;62.50;;;;;;10045824;28;20037;-63
2021/03/21 23:28:36;;;;;;;13.30;4.10;;;6.30;62.30;;;;;;10046791;28;20507;-61
2021/03/21 23:33:27;;;;;;;9.18;4.20;;;6.30;62.30;;;;;;10045646;28;20097;-63
2021/03/21 23:38:19;;;;;;;12.90;4.60;;;6.40;62.10;;;;;;10046994;28;20400;-65
2021/03/21 23:43:10;;;;;;;9.13;3.97;;;6.30;62.30;;;;;;10046461;28;20017;-63
2021/03/21 23:48:02;;;;;;;8.98;3.17;;;6.30;62.40;;;;;;10045947;28;20116;-66
2021/03/21 23:52:53;;;;;;;16.63;3.95;;;6.20;62.10;;;;;;10050418;28;20022;-61
2021/03/21 23:57:44;;;;;;;6.50;3.15;;;6.30;62.10;;;;;;10054926;28;20482;-62
